Date,TemperatureHighF,TemperatureAvgF,TemperatureLowF,DewpointHighF,DewpointAvgF,DewpointLowF,HumidityHigh,HumidityAvg,HumidityLow,PressureMaxIn,PressureMinIn,WindSpeedMaxMPH,WindSpeedAvgMPH,GustSpeedMaxMPH,PrecipitationSumIn
2013-1-1,34,27,23,20,10,-100,65,52,46,29.96,29.81,8,-30,0,0.11
2013-1-2,29,24,17,16,11,8,72,59,49,30.13,29.95,7,2,0,0.00
2013-1-3,30,20,10,16,6,-3,85,57,35,30.19,30.03,9,2,0,0.00
2013-1-4,39,31,20,25,22,16,88,69,54,30.02,29.87,10,3,0,0.02
2013-1-5,44,33,24,25,23,19,95,68,43,30.24,29.92,8,2,0,0.00
2013-1-6,42,33,25,36,30,23,99,89,67,30.20,29.94,9,1,0,0.04
2013-1-7,44,31,22,32,25,21,99,80,46,30.36,29.98,6,1,0,0.00
2013-1-8,48,36,21,37,31,20,99,84,55,30.40,30.30,13,2,0,0.00
2013-1-9,46,37,24,40,34,24,99,89,72,30.36,30.05,9,2,0,0.00
2013-1-10,48,40,27,37,26,23,92,61,39,30.50,30.07,8,2,0,0.00
2013-1-11,44,35,24,44,32,23,99,91,67,30.50,30.11,6,1,0,0.23
2013-1-12,49,45,42,48,45,42,99,99,97,30.12,30.04,5,1,0,0.09
2013-1-13,49,44,43,47,44,42,99,99,92,30.12,29.97,3,0,0,0.00
2013-1-14,59,49,37,55,44,29,99,84,48,30.21,29.92,8,2,0,0.04
2013-1-15,42,37,34,34,31,27,99,80,63,30.28,30.16,3,1,0,0.26
2013-1-16,36,34,32,35,33,28,99,98,73,30.18,29.72,4,1,0,0.51
2013-1-17,44,37,32,34,30,18,99,76,52,30.02,29.80,7,2,0,0.21
2013-1-18,32,26,16,20,8,-1,85,50,29,30.44,29.94,11,2,0,0.00
2013-1-19,48,40,27,36,29,15,86,67,53,30.37,29.89,14,5,0,0.00
2013-1-20,54,44,30,37,30,14,88,60,33,29.91,29.58,17,4,0,0.00
2013-1-21,31,27,19,29,18,9,98,69,41,30.07,29.72,6,1,0,0.00
2013-1-22,27,21,13,26,6,-2,99,57,29,30.07,29.71,15,3,0,0.00
2013-1-23,20,13,6,0,-3,-6,65,49,33,30.16,30.06,14,3,0,0.00
2013-1-24,22,13,2,0,-5,-8,75,47,26,30.26,30.08,18,4,0,0.00
2013-1-25,26,19,11,17,3,-2,90,52,31,30.32,29.98,10,2,0,0.00
2013-1-26,27,18,9,15,8,2,97,65,41,30.26,29.96,10,2,0,0.00
2013-1-27,34,21,8,10,4,0,85,51,25,30.43,30.26,7,2,0,0.00
2013-1-28,34,27,14,34,22,6,99,81,45,30.42,29.92,5,0,0,0.07
2013-1-29,41,36,32,37,34,31,99,93,79,30.14,29.91,7,1,0,0.17
2013-1-30,56,49,36,54,48,36,99,98,91,30.08,29.41,7,2,0,0.01
2013-1-31,58,47,31,57,35,10,99,65,36,29.61,28.99,17,7,0,0.44